• Join FlightAware (Why Join?)
  • Login
  • US Flag 
06:33AM EDT


 

Airport Tracker/Info


-or-


 

Live Flight TrackerFlight Track Log ✈ N414NW ✈ 27-Jul-2014 ✈ KECP - KDCU

Flight Track Log - Related Links

Times and Time Zones

All times are in EDT time to prevent confusion due to time zone crossing. See the N414NW flight status page for this flight to view local times or setup timezone preferences in your user account.

Time Position Orientation Groundspeed Altitude Reporting Facility
EDT Latitude Longitude Course Direction KTS MPH feet Rate Location/Type
06:11PM 30.3175 -85.7753 155° Southeast 172 198 1,100  Level Jacksonville Center
06:12PM 30.2844 -85.7575 155° Southeast 145 167 1,600 540 Climbing Jacksonville Center
06:13PM 30.2600 -85.7256 132° Southeast 133 153 2,200 540 Climbing Jacksonville Center
06:14PM 30.2917 -85.7192 10° North 47 54 2,800 600 Climbing Jacksonville Center
06:15PM 30.3289 -85.7297 346° North 72 83 3,500 660 Climbing Jacksonville Center
06:16PM 30.3661 -85.7406 346° North 113 130 4,200 720 Climbing Jacksonville Center
06:17PM 30.3994 -85.7464 351° North 126 145 5,000 780 Climbing Jacksonville Center
06:18PM 30.4369 -85.7547 349° North 126 145 5,800 660 Climbing Jacksonville Center
06:20PM 30.5117 -85.7739 348° North 126 145 7,000 660 Climbing Jacksonville Center
06:21PM 30.5283 -85.7792 345° North 141 162 7,400 660 Climbing Jacksonville Center
06:21PM 30.5489 -85.7869 342° North 126 145 7,700 660 Climbing Jacksonville Center
06:22PM 30.5739 -85.7950 344° North 147 169 8,200 660 Climbing Jacksonville Center
06:22PM 30.5883 -85.7956 358° North 132 152 8,400 540 Climbing Jacksonville Center
06:23PM 30.6133 -85.8036 345° North 146 168 8,800 780 Climbing Jacksonville Center
06:23PM 30.6300 -85.8064 352° North 137 158 9,200 780 Climbing Jacksonville Center
06:24PM 30.6547 -85.8144 344° North 149 171 9,600 600 Climbing Jacksonville Center
06:24PM 30.6692 -85.8172 351° North 142 163 9,800 360 Climbing Jacksonville Center
06:25PM 30.7003 -85.8278 344° North 162 186 10,000 180 Climbing Jacksonville Center
06:25PM 30.7169 -85.8308 351° North 152 175 10,000 60 Level Jacksonville Center
06:26PM 30.7500 -85.8439 341° North 190 219 10,100  Climbing Jacksonville Center
06:26PM 30.7667 -85.8494 344° North 165 190 10,000  Descending Jacksonville Center
06:27PM 30.8019 -85.8600 346° North 186 214 10,100 60 Climbing Jacksonville Center
06:27PM 30.8186 -85.8631 351° North 177 204 10,100  Level Jacksonville Center
06:28PM 30.8497 -85.8736 344° North 181 208 10,100  Level Jacksonville Center
06:28PM 30.8661 -85.8792 344° North 182 209 10,100  Level Jacksonville Center
06:29PM 30.8994 -85.8872 348° North 182 209 10,100  Level Jacksonville Center
06:29PM 30.9139 -85.8925 343° North 182 209 10,100  Level Jacksonville Center
06:30PM 30.9469 -85.9033 344° North 180 207 10,100  Level Jacksonville Center
06:30PM 30.9636 -85.9039 358° North 182 209 10,100  Level Jacksonville Center
06:31PM 30.9947 -85.9169 340° North 180 207 10,100  Level Jacksonville Center
06:31PM 31.0136 -85.9175 359° North 182 209 10,100  Level Jacksonville Center
06:32PM 31.0425 -85.9283 342° North 177 204 10,100  Level Jacksonville Center
06:32PM 31.0611 -85.9336 346° North 182 209 10,100 -120 Level Jacksonville Center
06:33PM 31.0922 -85.9419 347° North 181 208 10,000 -120 Descending Jacksonville Center
06:34PM 31.1400 -85.9556 346° North 178 205 10,000  Level Jacksonville Center
06:36PM 31.2333 -85.9806 347° North 174 200 10,000  Level Jacksonville Center
06:37PM 31.2767 -85.9942 345° North 174 200 10,000  Level Jacksonville Center
06:38PM 31.3244 -86.0056 348° North 174 200 10,000  Level Jacksonville Center
06:39PM 31.3722 -86.0192 346° North 175 201 10,000  Level Jacksonville Center
06:40PM 31.4200 -86.0331 346° North 174 200 10,000  Level Jacksonville Center
06:41PM 31.4656 -86.0442 348° North 173 199 10,000  Level Jacksonville Center
06:42PM 31.5131 -86.0606 344° North 174 200 10,100  Climbing Jacksonville Center
06:43PM 31.5631 -86.0719 349° North 173 199 10,100 -60 Level Jacksonville Center
06:44PM 31.6044 -86.0831 347° North 174 200 10,000 -60 Descending Jacksonville Center
06:45PM 31.6522 -86.0969 346° North 174 200 10,000  Level Jacksonville Center
06:46PM 31.7019 -86.1083 349° North 176 203 10,000  Level Jacksonville Center
06:47PM 31.7475 -86.1247 343° North 175 201 10,000  Level Jacksonville Center
06:48PM 31.7953 -86.1361 349° North 172 198 10,000  Level Jacksonville Center
06:52PM 31.9844 -86.2011 347° North 170 196 10,000  Level Atlanta Center
06:56PM 32.1528 -86.2444 348° North 173 199 10,000  Level Atlanta Center
07:00PM 32.3397 -86.2883 348° North 167 192 10,000  Level Atlanta Center
07:04PM 32.5289 -86.3375 348° North 167 192 10,000  Level Atlanta Center
07:05PM 32.5595 -86.3477 348° North  Level FlightAware Approximate
07:05PM 32.6114 -86.3606 347° North 170 196 10,000  Level Memphis Center
07:06PM 32.6578 -86.3714 349° North 170 196 10,000  Level Memphis Center
07:07PM 32.7039 -86.3847 346° North 170 196 10,000  Level Memphis Center
07:08PM 32.7325 -86.3897 352° North 169 194 10,000  Level Atlanta Center
07:08PM 32.7550 -86.4050 330° Northwest 170 196 10,000  Level Atlanta Center
07:09PM 32.7462 -86.3934 348° North  Level FlightAware Approximate
07:09PM 32.7819 -86.4106 350° North 170 196 10,000  Level Atlanta Center
07:10PM 32.8297 -86.4244 346° North 171 197 10,000  Level Atlanta Center
07:11PM 32.8672 -86.4353 346° North 170 196 10,000  Level Atlanta Center
07:12PM 32.9169 -86.4514 345° North 171 197 10,000  Level Atlanta Center
07:13PM 32.9628 -86.4625 349° North 170 196 10,000  Level Atlanta Center
07:14PM 33.0125 -86.4789 345° North 168 193 10,000  Level Atlanta Center
07:15PM 33.0539 -86.4875 350° North 166 191 10,000  Level Atlanta Center
07:16PM 33.1017 -86.5036 344° North 166 191 10,000  Level Atlanta Center
07:17PM 33.1536 -86.5200 345° North 165 190 10,000  Level Atlanta Center
07:18PM 33.1972 -86.5286 351° North 166 191 10,000  Level Atlanta Center
07:19PM 33.2386 -86.5422 345° North 167 192 10,000  Level Atlanta Center
07:20PM 33.2844 -86.5536 348° North 167 192 10,000  Level Atlanta Center
07:21PM 33.3300 -86.5672 346° North 165 190 10,000  Level Atlanta Center
07:22PM 33.3797 -86.5811 347° North 165 190 10,000  Level Atlanta Center
07:23PM 33.4275 -86.5925 349° North 165 190 10,000  Level Atlanta Center
07:24PM 33.4711 -86.6089 343° North 164 189 10,000  Level Atlanta Center
07:25PM 33.5147 -86.6200 348° North 165 190 10,000  Level Atlanta Center
07:26PM 33.5583 -86.6314 348° North 165 190 10,000  Level Atlanta Center
07:27PM 33.6039 -86.6453 346° North 167 192 10,000  Level Atlanta Center
07:28PM 33.6536 -86.6592 347° North 166 191 10,000  Level Atlanta Center
07:29PM 33.7014 -86.6756 344° North 165 190 10,000  Level Atlanta Center
07:30PM 33.7408 -86.6842 350° North 164 189 10,000 -120 Level Atlanta Center
07:31PM 33.7864 -86.6983 346° North 166 191 9,800 -300 Descending Atlanta Center
07:32PM 33.8297 -86.7194 338° Northwest 172 198 9,500 -420 Descending Atlanta Center
07:33PM 33.8733 -86.7383 340° North 180 207 9,100 -540 Descending Atlanta Center
07:34PM 33.9136 -86.7492 347° North 174 200 8,600 -600 Descending Memphis Center
07:35PM 33.9650 -86.7636 347° North 179 206 8,000 -600 Descending Memphis Center
07:36PM 34.0164 -86.7736 351° North 182 209 7,400 -540 Descending Memphis Center
07:37PM 34.0667 -86.7844 350° North 182 209 7,000 -540 Descending Memphis Center
07:38PM 34.1239 -86.8017 346° North 182 209 6,300 -540 Descending Memphis Center
07:39PM 34.1708 -86.8186 343° North 182 209 5,900 -540 Descending Memphis Center
07:40PM 34.2092 -86.8533 323° Northwest 177 204 5,300 -540 Descending Memphis Center
07:41PM 34.2492 -86.8867 325° Northwest 176 203 4,800 -540 Descending Memphis Center
07:42PM 34.2914 -86.9111 334° Northwest 174 200 4,300 -540 Descending Memphis Center
07:44PM 34.3428 -86.9231 349° North 179 206 3,800 -480 Descending Memphis Center
07:45PM 34.4022 -86.9286 356° North 180 207 3,400 -420 Descending Memphis Center
07:46PM 34.4536 -86.9311 358° North 181 208 3,000 -240 Descending Memphis Center
07:47PM 34.5078 -86.9358 356° North 181 208 3,000  Level Memphis Center
07:49PM 34.5923 -86.9183 10° North  Level FlightAware Approximate
07:56PM 34.6500 -86.9333 345° North  Level FlightAware Approximate
07:57PM 34.6541 -86.9454 270° West  Level Estimated
07:58PM 34.6541 -86.9454 345° North  Level Estimated
07:59PM 34.6541 -86.9454 112° Southeast  Level Estimated
08:00PM 34.6541 -86.9454 345° North  Level Estimated
08:01PM 34.6541 -86.9454 112° Southeast  Level Estimated
08:02PM 34.6541 -86.9454 345° North  Level Estimated
08:03PM 34.6541 -86.9454 112° Southeast  Level Estimated